Terminal Aerodrome Forecast
Issued by NWS

Home | Current Version | Previous Version | Text Only | Print | Product List | Glossary On
Versions: 1 2 3 4 5 6 7 8 9 10 11 12 13 14 15 16
000
FTUS43 KIND 271125
TAFLAF
TAF
KLAF 271125Z 2712/2812 00000KT 3SM BR SCT002
      TEMPO 2712/2713 1SM BR SCT010
     FM271330 06006KT P6SM SCT250
     FM271800 06004KT P6SM BKN035 BKN100
     FM280100 VRB02KT P6SM SCT100
     FM280600 00000KT 3SM BR SCT100
      TEMPO 2808/2812 1SM BR SCT010
      AMD LTD TO CLD VIS AND WIND TIL 271300=

USA.gov is the U.S. government's official web portal to all federal, state and local government web resources and services.